WetterOnline ( https://www.wetteronline.ch )

Wetter aktuell Görlitz

Aktuelles Wetter: Görlitz (240m)

6-stündlich | Neueste Meldungen
Ortszeit Temperatur Wetter
So, 15.09. 8:00 12.9° C leicht bewölkt
So, 15.09. 2:00 7.9° C wolkenlos
Sa, 14.09. 20:00 14.5° C leicht bewölkt
Sa, 14.09. 14:00 17.6° C fast wolkenlos
Sa, 14.09. 8:00 9.5° C wolkenlos
Sa, 14.09. 2:00 11.6° C leicht bewölkt
Fr, 13.09. 20:00 15.8° C bewölkt
Fr, 13.09. 14:00 20.5° C bedeckt
Ortszeit Temperatur Wetter
So, 15.09. 12:00 20.6° C leicht bewölkt
So, 15.09. 11:50 20.6° C leicht bewölkt
So, 15.09. 11:40 20.3° C wolkenlos
So, 15.09. 11:30 19.5° C wolkenlos
So, 15.09. 11:20 19.5° C wolkenlos
So, 15.09. 11:10 19.1° C wolkenlos
So, 15.09. 11:00 18.6° C wolkenlos
So, 15.09. 10:30 17.5° C leicht bewölkt
So, 15.09. 10:00 16.7° C leicht bewölkt
So, 15.09. 9:30 15.3° C wolkig
So, 15.09. 9:00 14.4° C leicht bewölkt
Ortszeit Relative Feuchte Sichtweite
So, 15.09. 8:00 64% 60 km
So, 15.09. 2:00 97% 10 km
Sa, 14.09. 20:00 57% 50 km
Sa, 14.09. 14:00 43% 55 km
Sa, 14.09. 8:00 80% 40 km
Sa, 14.09. 2:00 80% 55 km
Fr, 13.09. 20:00 82% >70 km
Fr, 13.09. 14:00 63% 60 km
Ortszeit Relative Feuchte Sichtweite
So, 15.09. 12:00 53% 55 km
So, 15.09. 11:50 53% -
So, 15.09. 11:40 54% -
So, 15.09. 11:30 56% 55 km
So, 15.09. 11:20 56% -
So, 15.09. 11:10 56% -
So, 15.09. 11:00 57% 35 km
So, 15.09. 10:30 59% 50 km
So, 15.09. 10:00 60% 55 km
So, 15.09. 9:30 60% 50 km
So, 15.09. 9:00 62% 40 km
Ortszeit Niederschlagsmenge Niederschlagsart
So, 15.09. 8:00 0.0 l/m2 in 12 Std. -
So, 15.09. 2:00 0.0 l/m2 in 6 Std. -
Sa, 14.09. 20:00 0.0 l/m2 in 12 Std. -
Sa, 14.09. 14:00 0.0 l/m2 in 6 Std. -
Sa, 14.09. 8:00 0.0 l/m2 in 12 Std. -
Sa, 14.09. 2:00 0.0 l/m2 in 6 Std. -
Fr, 13.09. 20:00 0.3 l/m2 in 12 Std. Regen
Fr, 13.09. 14:00 0.0 l/m2 in 6 Std. -
Ortszeit Niederschlagsmenge Niederschlagsart
So, 15.09. 12:00 0.0 l/m2 in 1 Std. -
So, 15.09. 11:50 keine Meldung -
So, 15.09. 11:40 keine Meldung -
So, 15.09. 11:30 0.0 l/m2 in 1 Std. -
So, 15.09. 11:20 keine Meldung -
So, 15.09. 11:10 keine Meldung -
So, 15.09. 11:00 0.0 l/m2 in 1 Std. -
So, 15.09. 10:30 0.0 l/m2 in 1 Std. -
So, 15.09. 10:00 0.0 l/m2 in 1 Std. -
So, 15.09. 9:30 0.0 l/m2 in 1 Std. -
So, 15.09. 9:00 0.0 l/m2 in 1 Std. -
Ortszeit Stärke Spitze Richtung
km/h Bft. km/h Grad Sektor
So, 15.09. 8:00 18 3 29 220° SW
So, 15.09. 2:00 6 1 11 160° S
Sa, 14.09. 20:00 4 1 22 110° O
Sa, 14.09. 14:00 7 2 18 80° O
Sa, 14.09. 8:00 4 1 11 270° W
Sa, 14.09. 2:00 0 0 22 - -
Fr, 13.09. 20:00 4 1 40 350° N
Fr, 13.09. 14:00 18 3 40 260° W
Ortszeit Stärke Spitze Richtung
km/h Bft. km/h Grad Sektor
So, 15.09. 12:00 22 4 36 210° SW
So, 15.09. 11:50 22 4 - 210° SW
So, 15.09. 11:40 25 4 - 210° SW
So, 15.09. 11:30 24 4 33 210° SW
So, 15.09. 11:20 24 4 - 210° SW
So, 15.09. 11:10 22 4 - 210° SW
So, 15.09. 11:00 25 4 36 200° S
So, 15.09. 10:30 25 4 36 200° S
So, 15.09. 10:00 24 4 39 210° SW
So, 15.09. 9:30 25 4 40 210° SW
So, 15.09. 9:00 24 4 33 220° SW
Ortszeit Untergrenze Bedeckung Gattung
total tief tief mittel hoch
So, 15.09. 8:00 12000 m 5/8 0/8 - - -
So, 15.09. 2:00 - 0/8 0/8 - - -
Sa, 14.09. 20:00 9000 m 4/8 0/8 - - -
Sa, 14.09. 14:00 1410 m 0/8 0/8 - - -
Sa, 14.09. 8:00 - 0/8 0/8 - - -
Sa, 14.09. 2:00 1500 m 2/8 2/8 - - -
Fr, 13.09. 20:00 1350 m 8/8 7/8 - - -
Fr, 13.09. 14:00 900 m 8/8 8/8 - - -
Ortszeit Bedeckungsgrad in Achtel und Wolkenuntergrenze
So, 15.09. 12:00 4(10500m)
So, 15.09. 11:50 4(10500m)
So, 15.09. 11:40 keine Wolken
So, 15.09. 11:30 keine Wolken
So, 15.09. 11:20 keine Wolken
So, 15.09. 11:10 keine Wolken
So, 15.09. 11:00 keine Wolken
So, 15.09. 10:30 2(9000m) 3(10500m)
So, 15.09. 10:00 7(10500m) 7(10500m)
So, 15.09. 9:30 8(10500m)
So, 15.09. 9:00 7(12000m)
Ortszeit Luftdruck NN (hPa) Tendenz (hPa in 3 Std.)
So, 15.09. 8:00 1025 - 1,6
So, 15.09. 2:00 1029 - 1,9
Sa, 14.09. 20:00 1030 - 1,0
Sa, 14.09. 14:00 1033 - 0,9
Sa, 14.09. 8:00 1035 + 1,1
Sa, 14.09. 2:00 1034 + 1,2
Fr, 13.09. 20:00 1030 + 1,5
Fr, 13.09. 14:00 1028 0,0
Ortszeit Luftdruck NN (hPa) Tendenz (hPa in 3 Std.)
So, 15.09. 12:00 1022 - 1,5
So, 15.09. 11:50 1022 keine Meldung
So, 15.09. 11:40 1022 keine Meldung
So, 15.09. 11:30 1022 - 1,4
So, 15.09. 11:20 1022 keine Meldung
So, 15.09. 11:10 1022 keine Meldung
So, 15.09. 11:00 1023 - 1,5
So, 15.09. 10:30 1023 - 1,2
So, 15.09. 10:00 1024 - 1,1
So, 15.09. 9:30 1024 - 1,3
So, 15.09. 9:00 1024 - 1,3
Ortszeit Schneehöhe (cm)
So, 15.09. 8:00 -
So, 15.09. 2:00 -
Sa, 14.09. 20:00 -
Sa, 14.09. 14:00 -
Sa, 14.09. 8:00 -
Sa, 14.09. 2:00 -
Fr, 13.09. 20:00 -
Fr, 13.09. 14:00 -
Ortszeit Schneehöhe (cm)
So, 15.09. 12:00 -
So, 15.09. 11:50 -
So, 15.09. 11:40 -
So, 15.09. 11:30 -
So, 15.09. 11:20 -
So, 15.09. 11:10 -
So, 15.09. 11:00 -
So, 15.09. 10:30 -
So, 15.09. 10:00 -
So, 15.09. 9:30 -
So, 15.09. 9:00 -
Link zu dieser Seite / Seite empfehlen

Das Wetter in ...